sensor_id;sensor_type;location;lat;lon;timestamp;P1;durP1;ratioP1;P2;durP2;ratioP2
79130;SDS011;72396;45.194;9.142;2024-03-23T00:53:38;67.07;;;32.13;;
79130;SDS011;72396;45.194;9.142;2024-03-23T00:56:03;70.40;;;33.40;;
79130;SDS011;72396;45.194;9.142;2024-03-23T00:58:29;64.55;;;32.03;;
79130;SDS011;72396;45.194;9.142;2024-03-23T01:00:55;68.53;;;30.52;;
79130;SDS011;72396;45.194;9.142;2024-03-23T01:03:20;68.28;;;31.67;;
79130;SDS011;72396;45.194;9.142;2024-03-23T01:05:46;65.53;;;30.95;;
79130;SDS011;72396;45.194;9.142;2024-03-23T01:08:11;65.45;;;30.95;;
79130;SDS011;72396;45.194;9.142;2024-03-23T01:10:36;67.10;;;31.52;;
79130;SDS011;72396;45.194;9.142;2024-03-23T01:13:02;64.63;;;30.52;;
79130;SDS011;72396;45.194;9.142;2024-03-23T01:15:27;68.10;;;31.95;;
79130;SDS011;72396;45.194;9.142;2024-03-23T01:17:53;58.90;;;30.30;;
79130;SDS011;72396;45.194;9.142;2024-03-23T01:20:18;58.92;;;28.35;;
79130;SDS011;72396;45.194;9.142;2024-03-23T01:22:43;59.53;;;28.90;;
79130;SDS011;72396;45.194;9.142;2024-03-23T01:25:09;52.30;;;26.13;;
79130;SDS011;72396;45.194;9.142;2024-03-23T01:27:34;54.47;;;26.70;;
79130;SDS011;72396;45.194;9.142;2024-03-23T01:29:59;48.75;;;24.42;;
79130;SDS011;72396;45.194;9.142;2024-03-23T01:32:25;50.08;;;25.60;;
79130;SDS011;72396;45.194;9.142;2024-03-23T01:34:50;50.80;;;25.00;;
79130;SDS011;72396;45.194;9.142;2024-03-23T01:37:15;55.88;;;26.27;;
79130;SDS011;72396;45.194;9.142;2024-03-23T01:39:41;53.85;;;24.77;;
79130;SDS011;72396;45.194;9.142;2024-03-23T01:42:06;50.63;;;23.05;;
79130;SDS011;72396;45.194;9.142;2024-03-23T01:44:31;48.85;;;23.67;;
79130;SDS011;72396;45.194;9.142;2024-03-23T01:46:57;42.88;;;22.85;;
79130;SDS011;72396;45.194;9.142;2024-03-23T01:49:22;48.10;;;22.48;;
79130;SDS011;72396;45.194;9.142;2024-03-23T01:51:48;46.22;;;21.10;;
79130;SDS011;72396;45.194;9.142;2024-03-23T01:54:13;44.40;;;21.83;;
79130;SDS011;72396;45.194;9.142;2024-03-23T01:56:38;41.80;;;22.70;;
79130;SDS011;72396;45.194;9.142;2024-03-23T01:59:04;46.78;;;23.33;;
79130;SDS011;72396;45.194;9.142;2024-03-23T02:01:30;44.40;;;21.75;;
79130;SDS011;72396;45.194;9.142;2024-03-23T02:03:56;40.10;;;21.25;;
79130;SDS011;72396;45.194;9.142;2024-03-23T02:06:22;44.17;;;22.70;;
79130;SDS011;72396;45.194;9.142;2024-03-23T02:08:49;42.92;;;22.08;;
79130;SDS011;72396;45.194;9.142;2024-03-23T02:11:14;46.80;;;23.33;;
79130;SDS011;72396;45.194;9.142;2024-03-23T02:13:39;44.90;;;22.60;;
79130;SDS011;72396;45.194;9.142;2024-03-23T02:16:05;41.13;;;20.63;;
79130;SDS011;72396;45.194;9.142;2024-03-23T02:18:31;43.20;;;20.88;;
79130;SDS011;72396;45.194;9.142;2024-03-23T02:20:57;46.38;;;22.55;;
79130;SDS011;72396;45.194;9.142;2024-03-23T02:23:23;45.22;;;23.38;;
79130;SDS011;72396;45.194;9.142;2024-03-23T02:25:49;43.83;;;21.98;;
79130;SDS011;72396;45.194;9.142;2024-03-23T02:28:15;48.58;;;23.13;;
79130;SDS011;72396;45.194;9.142;2024-03-23T02:30:40;44.38;;;21.92;;
79130;SDS011;72396;45.194;9.142;2024-03-23T02:33:05;47.03;;;23.23;;
79130;SDS011;72396;45.194;9.142;2024-03-23T02:35:31;46.25;;;23.23;;
79130;SDS011;72396;45.194;9.142;2024-03-23T02:37:56;42.60;;;22.42;;
79130;SDS011;72396;45.194;9.142;2024-03-23T02:40:22;43.17;;;21.90;;
79130;SDS011;72396;45.194;9.142;2024-03-23T02:42:49;46.60;;;23.40;;
79130;SDS011;72396;45.194;9.142;2024-03-23T02:45:14;48.00;;;24.10;;
79130;SDS011;72396;45.194;9.142;2024-03-23T02:47:40;46.92;;;22.40;;
79130;SDS011;72396;45.194;9.142;2024-03-23T02:50:05;41.35;;;22.20;;
79130;SDS011;72396;45.194;9.142;2024-03-23T02:52:31;45.35;;;23.08;;
79130;SDS011;72396;45.194;9.142;2024-03-23T02:54:57;46.67;;;22.08;;
79130;SDS011;72396;45.194;9.142;2024-03-23T02:57:22;45.08;;;22.90;;
79130;SDS011;72396;45.194;9.142;2024-03-23T02:59:48;45.63;;;23.27;;
79130;SDS011;72396;45.194;9.142;2024-03-23T03:02:13;40.38;;;21.52;;
79130;SDS011;72396;45.194;9.142;2024-03-23T03:04:40;44.70;;;21.05;;
79130;SDS011;72396;45.194;9.142;2024-03-23T03:07:05;42.80;;;21.42;;
79130;SDS011;72396;45.194;9.142;2024-03-23T03:09:30;41.63;;;20.95;;
79130;SDS011;72396;45.194;9.142;2024-03-23T03:11:56;39.83;;;20.48;;
79130;SDS011;72396;45.194;9.142;2024-03-23T03:14:22;41.45;;;20.10;;
79130;SDS011;72396;45.194;9.142;2024-03-23T03:16:47;43.67;;;22.27;;
79130;SDS011;72396;45.194;9.142;2024-03-23T03:19:12;43.13;;;21.40;;
79130;SDS011;72396;45.194;9.142;2024-03-23T03:21:38;37.65;;;20.88;;
79130;SDS011;72396;45.194;9.142;2024-03-23T03:24:05;40.33;;;20.77;;
79130;SDS011;72396;45.194;9.142;2024-03-23T03:26:31;38.47;;;21.20;;
79130;SDS011;72396;45.194;9.142;2024-03-23T03:28:57;41.10;;;20.35;;
79130;SDS011;72396;45.194;9.142;2024-03-23T03:31:22;40.78;;;21.27;;
79130;SDS011;72396;45.194;9.142;2024-03-23T03:33:49;38.97;;;20.08;;
79130;SDS011;72396;45.194;9.142;2024-03-23T03:36:15;39.40;;;19.88;;
79130;SDS011;72396;45.194;9.142;2024-03-23T03:38:41;44.17;;;21.77;;
79130;SDS011;72396;45.194;9.142;2024-03-23T03:41:06;37.40;;;20.50;;
79130;SDS011;72396;45.194;9.142;2024-03-23T03:43:32;38.95;;;19.98;;
79130;SDS011;72396;45.194;9.142;2024-03-23T03:45:58;34.42;;;19.60;;
79130;SDS011;72396;45.194;9.142;2024-03-23T03:48:25;37.88;;;19.92;;
79130;SDS011;72396;45.194;9.142;2024-03-23T03:50:51;38.40;;;19.60;;
79130;SDS011;72396;45.194;9.142;2024-03-23T03:53:17;39.38;;;20.30;;
79130;SDS011;72396;45.194;9.142;2024-03-23T03:55:42;35.28;;;19.38;;
79130;SDS011;72396;45.194;9.142;2024-03-23T03:58:08;34.63;;;19.42;;
79130;SDS011;72396;45.194;9.142;2024-03-23T04:00:33;39.17;;;20.42;;
79130;SDS011;72396;45.194;9.142;2024-03-23T04:02:58;36.55;;;19.33;;
79130;SDS011;72396;45.194;9.142;2024-03-23T04:05:24;39.38;;;19.90;;
79130;SDS011;72396;45.194;9.142;2024-03-23T04:07:49;38.28;;;20.17;;
79130;SDS011;72396;45.194;9.142;2024-03-23T04:10:15;31.80;;;18.45;;
79130;SDS011;72396;45.194;9.142;2024-03-23T04:12:40;37.25;;;19.63;;
79130;SDS011;72396;45.194;9.142;2024-03-23T04:15:06;36.10;;;18.83;;
79130;SDS011;72396;45.194;9.142;2024-03-23T04:17:32;35.10;;;19.92;;
79130;SDS011;72396;45.194;9.142;2024-03-23T04:19:59;30.63;;;17.52;;
79130;SDS011;72396;45.194;9.142;2024-03-23T04:22:25;32.30;;;18.27;;
79130;SDS011;72396;45.194;9.142;2024-03-23T04:24:56;30.00;;;18.23;;
79130;SDS011;72396;45.194;9.142;2024-03-23T04:27:22;30.98;;;17.13;;
79130;SDS011;72396;45.194;9.142;2024-03-23T04:29:48;32.60;;;17.20;;
79130;SDS011;72396;45.194;9.142;2024-03-23T04:32:17;33.10;;;17.13;;
79130;SDS011;72396;45.194;9.142;2024-03-23T04:34:43;34.20;;;18.45;;
79130;SDS011;72396;45.194;9.142;2024-03-23T04:37:09;34.80;;;18.55;;
79130;SDS011;72396;45.194;9.142;2024-03-23T04:39:38;30.77;;;17.27;;
79130;SDS011;72396;45.194;9.142;2024-03-23T04:42:03;30.85;;;16.63;;
79130;SDS011;72396;45.194;9.142;2024-03-23T04:44:29;29.55;;;16.58;;
79130;SDS011;72396;45.194;9.142;2024-03-23T04:46:55;32.53;;;17.63;;
79130;SDS011;72396;45.194;9.142;2024-03-23T04:49:21;33.25;;;19.13;;
79130;SDS011;72396;45.194;9.142;2024-03-23T04:51:46;30.20;;;16.55;;
79130;SDS011;72396;45.194;9.142;2024-03-23T04:54:12;29.48;;;17.27;;
79130;SDS011;72396;45.194;9.142;2024-03-23T04:56:38;34.88;;;17.83;;
79130;SDS011;72396;45.194;9.142;2024-03-23T04:59:03;43.15;;;20.40;;
79130;SDS011;72396;45.194;9.142;2024-03-23T05:01:30;35.72;;;17.90;;
79130;SDS011;72396;45.194;9.142;2024-03-23T05:03:56;39.53;;;21.05;;
79130;SDS011;72396;45.194;9.142;2024-03-23T05:06:22;37.75;;;19.85;;
79130;SDS011;72396;45.194;9.142;2024-03-23T05:08:48;33.88;;;17.77;;
79130;SDS011;72396;45.194;9.142;2024-03-23T05:11:14;37.88;;;18.42;;
79130;SDS011;72396;45.194;9.142;2024-03-23T05:13:40;34.58;;;19.33;;
79130;SDS011;72396;45.194;9.142;2024-03-23T05:16:06;32.25;;;17.88;;
79130;SDS011;72396;45.194;9.142;2024-03-23T05:18:31;30.15;;;16.80;;
79130;SDS011;72396;45.194;9.142;2024-03-23T05:20:57;27.38;;;16.02;;
79130;SDS011;72396;45.194;9.142;2024-03-23T05:23:23;29.60;;;16.13;;
79130;SDS011;72396;45.194;9.142;2024-03-23T05:25:49;30.13;;;15.82;;
79130;SDS011;72396;45.194;9.142;2024-03-23T05:28:14;30.00;;;16.42;;
79130;SDS011;72396;45.194;9.142;2024-03-23T05:30:40;26.13;;;14.88;;
79130;SDS011;72396;45.194;9.142;2024-03-23T05:33:05;25.15;;;15.25;;
79130;SDS011;72396;45.194;9.142;2024-03-23T05:35:31;31.20;;;17.00;;
79130;SDS011;72396;45.194;9.142;2024-03-23T05:37:57;27.63;;;14.95;;
79130;SDS011;72396;45.194;9.142;2024-03-23T05:40:23;29.00;;;15.55;;
79130;SDS011;72396;45.194;9.142;2024-03-23T05:42:49;26.45;;;14.50;;
79130;SDS011;72396;45.194;9.142;2024-03-23T05:45:17;24.35;;;14.57;;
79130;SDS011;72396;45.194;9.142;2024-03-23T05:47:43;26.00;;;15.32;;
79130;SDS011;72396;45.194;9.142;2024-03-23T05:50:09;26.30;;;14.85;;
79130;SDS011;72396;45.194;9.142;2024-03-23T05:52:37;27.05;;;15.65;;
79130;SDS011;72396;45.194;9.142;2024-03-23T05:55:03;25.00;;;14.23;;
79130;SDS011;72396;45.194;9.142;2024-03-23T05:57:29;30.88;;;15.35;;
79130;SDS011;72396;45.194;9.142;2024-03-23T05:59:54;24.67;;;13.70;;
79130;SDS011;72396;45.194;9.142;2024-03-23T06:02:19;27.85;;;15.15;;
79130;SDS011;72396;45.194;9.142;2024-03-23T06:04:45;24.98;;;14.07;;
79130;SDS011;72396;45.194;9.142;2024-03-23T06:07:11;23.48;;;13.30;;
79130;SDS011;72396;45.194;9.142;2024-03-23T06:09:39;22.83;;;13.15;;
79130;SDS011;72396;45.194;9.142;2024-03-23T06:12:07;24.23;;;14.50;;
79130;SDS011;72396;45.194;9.142;2024-03-23T06:14:33;26.08;;;13.23;;
79130;SDS011;72396;45.194;9.142;2024-03-23T06:16:59;26.67;;;14.43;;
79130;SDS011;72396;45.194;9.142;2024-03-23T06:19:25;25.88;;;14.00;;
79130;SDS011;72396;45.194;9.142;2024-03-23T06:21:54;27.45;;;14.02;;
79130;SDS011;72396;45.194;9.142;2024-03-23T06:24:21;25.25;;;14.40;;
79130;SDS011;72396;45.194;9.142;2024-03-23T06:26:47;22.63;;;14.27;;
79130;SDS011;72396;45.194;9.142;2024-03-23T06:29:12;21.73;;;12.77;;
79130;SDS011;72396;45.194;9.142;2024-03-23T06:31:38;24.08;;;13.77;;
79130;SDS011;72396;45.194;9.142;2024-03-23T06:34:04;21.27;;;12.68;;
79130;SDS011;72396;45.194;9.142;2024-03-23T06:36:29;23.52;;;13.45;;
79130;SDS011;72396;45.194;9.142;2024-03-23T06:38:55;26.40;;;14.23;;
79130;SDS011;72396;45.194;9.142;2024-03-23T06:41:21;24.60;;;14.02;;
79130;SDS011;72396;45.194;9.142;2024-03-23T06:43:46;23.92;;;14.15;;
79130;SDS011;72396;45.194;9.142;2024-03-23T06:46:12;25.23;;;13.98;;
79130;SDS011;72396;45.194;9.142;2024-03-23T06:48:37;26.90;;;14.82;;
79130;SDS011;72396;45.194;9.142;2024-03-23T06:51:02;31.27;;;15.23;;
79130;SDS011;72396;45.194;9.142;2024-03-23T06:53:28;31.48;;;16.05;;
79130;SDS011;72396;45.194;9.142;2024-03-23T06:55:54;31.85;;;17.60;;
79130;SDS011;72396;45.194;9.142;2024-03-23T06:58:20;34.28;;;17.42;;
79130;SDS011;72396;45.194;9.142;2024-03-23T07:00:46;30.48;;;16.00;;
79130;SDS011;72396;45.194;9.142;2024-03-23T07:03:12;37.97;;;17.88;;
79130;SDS011;72396;45.194;9.142;2024-03-23T07:05:37;33.92;;;16.65;;
79130;SDS011;72396;45.194;9.142;2024-03-23T07:08:03;33.25;;;18.23;;
79130;SDS011;72396;45.194;9.142;2024-03-23T07:10:28;30.08;;;15.82;;
79130;SDS011;72396;45.194;9.142;2024-03-23T07:12:54;31.33;;;17.52;;
79130;SDS011;72396;45.194;9.142;2024-03-23T07:15:19;31.17;;;17.00;;
79130;SDS011;72396;45.194;9.142;2024-03-23T07:17:46;34.30;;;17.55;;
79130;SDS011;72396;45.194;9.142;2024-03-23T07:20:12;35.08;;;17.10;;
79130;SDS011;72396;45.194;9.142;2024-03-23T07:22:38;28.85;;;17.30;;
79130;SDS011;72396;45.194;9.142;2024-03-23T07:25:04;30.40;;;17.05;;
79130;SDS011;72396;45.194;9.142;2024-03-23T07:27:31;32.85;;;16.15;;
79130;SDS011;72396;45.194;9.142;2024-03-23T07:29:56;31.80;;;15.48;;
79130;SDS011;72396;45.194;9.142;2024-03-23T07:32:21;34.08;;;17.65;;
79130;SDS011;72396;45.194;9.142;2024-03-23T07:34:47;29.95;;;15.95;;
79130;SDS011;72396;45.194;9.142;2024-03-23T07:37:12;28.20;;;16.25;;
79130;SDS011;72396;45.194;9.142;2024-03-23T07:39:39;29.92;;;15.57;;
79130;SDS011;72396;45.194;9.142;2024-03-23T07:42:04;28.88;;;15.15;;
79130;SDS011;72396;45.194;9.142;2024-03-23T07:44:30;26.50;;;15.15;;
79130;SDS011;72396;45.194;9.142;2024-03-23T07:46:56;25.00;;;14.65;;
79130;SDS011;72396;45.194;9.142;2024-03-23T07:49:21;25.23;;;13.82;;
79130;SDS011;72396;45.194;9.142;2024-03-23T07:51:47;23.15;;;13.45;;
79130;SDS011;72396;45.194;9.142;2024-03-23T07:54:12;24.50;;;12.75;;
79130;SDS011;72396;45.194;9.142;2024-03-23T07:56:37;25.75;;;13.57;;
79130;SDS011;72396;45.194;9.142;2024-03-23T07:59:03;26.15;;;14.75;;
79130;SDS011;72396;45.194;9.142;2024-03-23T08:01:28;22.98;;;12.85;;
79130;SDS011;72396;45.194;9.142;2024-03-23T08:03:54;23.55;;;13.57;;
79130;SDS011;72396;45.194;9.142;2024-03-23T08:06:20;24.40;;;13.82;;
79130;SDS011;72396;45.194;9.142;2024-03-23T08:08:48;20.20;;;12.75;;
79130;SDS011;72396;45.194;9.142;2024-03-23T08:11:16;62.38;;;20.98;;
79130;SDS011;72396;45.194;9.142;2024-03-23T08:13:42;21.98;;;13.25;;
79130;SDS011;72396;45.194;9.142;2024-03-23T08:16:09;26.83;;;13.63;;
79130;SDS011;72396;45.194;9.142;2024-03-23T08:18:35;19.63;;;11.63;;
79130;SDS011;72396;45.194;9.142;2024-03-23T08:23:27;52.22;;;19.23;;
79130;SDS011;72396;45.194;9.142;2024-03-23T08:26:02;24.25;;;13.38;;
79130;SDS011;72396;45.194;9.142;2024-03-23T08:28:29;23.95;;;11.75;;
79130;SDS011;72396;45.194;9.142;2024-03-23T08:30:54;21.23;;;11.98;;
79130;SDS011;72396;45.194;9.142;2024-03-23T08:33:21;27.85;;;13.52;;
79130;SDS011;72396;45.194;9.142;2024-03-23T08:35:55;32.10;;;11.30;;
79130;SDS011;72396;45.194;9.142;2024-03-23T08:38:25;18.63;;;10.93;;
79130;SDS011;72396;45.194;9.142;2024-03-23T08:43:27;21.55;;;11.80;;
79130;SDS011;72396;45.194;9.142;2024-03-23T08:46:02;23.63;;;13.43;;
79130;SDS011;72396;45.194;9.142;2024-03-23T08:48:32;20.45;;;11.32;;
79130;SDS011;72396;45.194;9.142;2024-03-23T08:51:05;28.00;;;11.63;;
79130;SDS011;72396;45.194;9.142;2024-03-23T08:53:32;21.08;;;11.02;;
79130;SDS011;72396;45.194;9.142;2024-03-23T08:55:58;17.83;;;9.85;;
79130;SDS011;72396;45.194;9.142;2024-03-23T08:58:25;36.15;;;13.55;;
79130;SDS011;72396;45.194;9.142;2024-03-23T09:00:52;18.27;;;11.40;;
79130;SDS011;72396;45.194;9.142;2024-03-23T09:03:21;26.48;;;12.20;;
79130;SDS011;72396;45.194;9.142;2024-03-23T09:05:46;20.77;;;10.48;;
79130;SDS011;72396;45.194;9.142;2024-03-23T09:08:12;35.70;;;11.98;;
79130;SDS011;72396;45.194;9.142;2024-03-23T09:10:40;16.95;;;9.85;;
79130;SDS011;72396;45.194;9.142;2024-03-23T09:13:07;16.92;;;7.97;;
79130;SDS011;72396;45.194;9.142;2024-03-23T09:15:36;15.98;;;8.20;;
79130;SDS011;72396;45.194;9.142;2024-03-23T09:18:03;13.35;;;8.02;;
79130;SDS011;72396;45.194;9.142;2024-03-23T09:20:29;18.67;;;8.50;;
79130;SDS011;72396;45.194;9.142;2024-03-23T09:22:57;19.98;;;8.30;;
79130;SDS011;72396;45.194;9.142;2024-03-23T09:25:22;13.73;;;8.27;;
79130;SDS011;72396;45.194;9.142;2024-03-23T09:27:48;14.63;;;7.70;;
79130;SDS011;72396;45.194;9.142;2024-03-23T09:30:13;12.98;;;7.05;;
79130;SDS011;72396;45.194;9.142;2024-03-23T09:32:39;14.98;;;7.30;;
79130;SDS011;72396;45.194;9.142;2024-03-23T09:35:07;14.55;;;8.00;;
79130;SDS011;72396;45.194;9.142;2024-03-23T09:37:32;16.13;;;8.18;;
79130;SDS011;72396;45.194;9.142;2024-03-23T09:39:58;14.05;;;7.18;;
79130;SDS011;72396;45.194;9.142;2024-03-23T09:42:23;15.02;;;8.13;;
79130;SDS011;72396;45.194;9.142;2024-03-23T09:44:49;13.90;;;7.65;;
79130;SDS011;72396;45.194;9.142;2024-03-23T09:47:16;14.15;;;7.75;;
79130;SDS011;72396;45.194;9.142;2024-03-23T09:49:42;10.80;;;6.70;;
79130;SDS011;72396;45.194;9.142;2024-03-23T09:52:08;15.00;;;6.53;;
79130;SDS011;72396;45.194;9.142;2024-03-23T09:54:33;12.00;;;6.80;;
79130;SDS011;72396;45.194;9.142;2024-03-23T09:56:59;15.32;;;7.80;;
79130;SDS011;72396;45.194;9.142;2024-03-23T09:59:24;12.10;;;7.25;;
79130;SDS011;72396;45.194;9.142;2024-03-23T10:01:51;12.18;;;7.60;;
79130;SDS011;72396;45.194;9.142;2024-03-23T10:04:36;11.93;;;6.65;;
79130;SDS011;72396;45.194;9.142;2024-03-23T10:07:12;10.52;;;6.20;;
79130;SDS011;72396;45.194;9.142;2024-03-23T10:09:38;10.00;;;6.50;;
79130;SDS011;72396;45.194;9.142;2024-03-23T10:12:15;10.05;;;5.68;;
79130;SDS011;72396;45.194;9.142;2024-03-23T10:14:42;16.38;;;7.05;;
79130;SDS011;72396;45.194;9.142;2024-03-23T10:17:26;13.68;;;6.65;;
79130;SDS011;72396;45.194;9.142;2024-03-23T10:19:52;11.40;;;6.97;;
79130;SDS011;72396;45.194;9.142;2024-03-23T10:22:19;9.68;;;6.18;;
79130;SDS011;72396;45.194;9.142;2024-03-23T10:24:45;9.40;;;4.82;;
79130;SDS011;72396;45.194;9.142;2024-03-23T10:27:18;10.88;;;5.72;;
79130;SDS011;72396;45.194;9.142;2024-03-23T10:29:44;16.40;;;6.82;;
79130;SDS011;72396;45.194;9.142;2024-03-23T10:32:17;12.45;;;6.28;;
79130;SDS011;72396;45.194;9.142;2024-03-23T10:34:43;9.93;;;6.63;;
79130;SDS011;72396;45.194;9.142;2024-03-23T10:37:09;12.75;;;6.57;;
79130;SDS011;72396;45.194;9.142;2024-03-23T10:39:36;12.57;;;6.25;;
79130;SDS011;72396;45.194;9.142;2024-03-23T10:42:02;11.52;;;6.10;;
79130;SDS011;72396;45.194;9.142;2024-03-23T10:44:29;16.17;;;6.97;;
79130;SDS011;72396;45.194;9.142;2024-03-23T10:46:56;12.52;;;7.80;;
79130;SDS011;72396;45.194;9.142;2024-03-23T10:49:34;11.52;;;6.82;;
79130;SDS011;72396;45.194;9.142;2024-03-23T10:52:01;10.23;;;5.20;;
79130;SDS011;72396;45.194;9.142;2024-03-23T10:54:28;10.27;;;5.03;;
79130;SDS011;72396;45.194;9.142;2024-03-23T10:56:57;7.60;;;3.97;;
79130;SDS011;72396;45.194;9.142;2024-03-23T10:59:33;11.13;;;3.97;;
79130;SDS011;72396;45.194;9.142;2024-03-23T11:02:01;8.65;;;4.22;;
79130;SDS011;72396;45.194;9.142;2024-03-23T11:04:38;9.52;;;4.30;;
79130;SDS011;72396;45.194;9.142;2024-03-23T11:09:51;9.48;;;3.42;;
79130;SDS011;72396;45.194;9.142;2024-03-23T11:14:49;15.00;;;4.10;;
79130;SDS011;72396;45.194;9.142;2024-03-23T11:17:22;5.88;;;3.25;;
79130;SDS011;72396;45.194;9.142;2024-03-23T11:19:53;8.43;;;3.83;;
79130;SDS011;72396;45.194;9.142;2024-03-23T11:25:17;8.40;;;3.95;;
79130;SDS011;72396;45.194;9.142;2024-03-23T11:27:47;6.57;;;3.33;;
79130;SDS011;72396;45.194;9.142;2024-03-23T11:30:17;7.90;;;3.78;;
79130;SDS011;72396;45.194;9.142;2024-03-23T11:32:44;7.07;;;3.55;;
79130;SDS011;72396;45.194;9.142;2024-03-23T11:35:32;7.93;;;3.60;;
79130;SDS011;72396;45.194;9.142;2024-03-23T11:38:06;6.95;;;3.78;;
79130;SDS011;72396;45.194;9.142;2024-03-23T11:40:33;6.25;;;3.17;;
79130;SDS011;72396;45.194;9.142;2024-03-23T11:43:00;6.78;;;3.03;;
79130;SDS011;72396;45.194;9.142;2024-03-23T11:45:38;7.30;;;3.25;;
79130;SDS011;72396;45.194;9.142;2024-03-23T11:48:07;5.57;;;3.08;;
79130;SDS011;72396;45.194;9.142;2024-03-23T11:50:34;10.75;;;4.03;;
79130;SDS011;72396;45.194;9.142;2024-03-23T11:56:00;7.57;;;3.42;;
79130;SDS011;72396;45.194;9.142;2024-03-23T11:58:26;6.22;;;3.47;;
79130;SDS011;72396;45.194;9.142;2024-03-23T12:00:53;5.57;;;3.60;;
79130;SDS011;72396;45.194;9.142;2024-03-23T12:03:18;6.32;;;3.63;;
79130;SDS011;72396;45.194;9.142;2024-03-23T12:05:49;8.73;;;3.10;;
79130;SDS011;72396;45.194;9.142;2024-03-23T12:08:22;5.35;;;2.65;;
79130;SDS011;72396;45.194;9.142;2024-03-23T12:10:49;6.85;;;3.15;;
79130;SDS011;72396;45.194;9.142;2024-03-23T12:13:29;6.57;;;3.00;;
79130;SDS011;72396;45.194;9.142;2024-03-23T12:15:54;7.75;;;3.00;;
79130;SDS011;72396;45.194;9.142;2024-03-23T12:18:23;8.60;;;3.28;;
79130;SDS011;72396;45.194;9.142;2024-03-23T12:20:49;16.75;;;4.22;;
79130;SDS011;72396;45.194;9.142;2024-03-23T12:23:15;9.93;;;4.47;;
79130;SDS011;72396;45.194;9.142;2024-03-23T12:25:40;8.43;;;4.00;;
79130;SDS011;72396;45.194;9.142;2024-03-23T12:28:06;44.08;;;22.95;;
79130;SDS011;72396;45.194;9.142;2024-03-23T12:30:35;25.15;;;13.05;;
79130;SDS011;72396;45.194;9.142;2024-03-23T12:33:03;12.60;;;7.05;;
79130;SDS011;72396;45.194;9.142;2024-03-23T12:35:29;16.90;;;7.22;;
79130;SDS011;72396;45.194;9.142;2024-03-23T12:37:54;10.48;;;5.75;;
79130;SDS011;72396;45.194;9.142;2024-03-23T12:40:20;11.77;;;5.38;;
79130;SDS011;72396;45.194;9.142;2024-03-23T12:42:45;9.57;;;5.90;;
79130;SDS011;72396;45.194;9.142;2024-03-23T12:45:10;8.63;;;4.55;;
79130;SDS011;72396;45.194;9.142;2024-03-23T12:47:36;8.05;;;5.00;;
79130;SDS011;72396;45.194;9.142;2024-03-23T12:50:01;9.57;;;4.32;;
79130;SDS011;72396;45.194;9.142;2024-03-23T12:52:27;9.77;;;4.05;;
79130;SDS011;72396;45.194;9.142;2024-03-23T12:54:55;7.18;;;3.67;;
79130;SDS011;72396;45.194;9.142;2024-03-23T12:57:25;7.85;;;3.65;;
79130;SDS011;72396;45.194;9.142;2024-03-23T12:59:53;9.63;;;3.50;;
79130;SDS011;72396;45.194;9.142;2024-03-23T13:02:19;6.45;;;3.15;;
79130;SDS011;72396;45.194;9.142;2024-03-23T13:04:52;9.10;;;3.45;;
79130;SDS011;72396;45.194;9.142;2024-03-23T13:07:18;6.38;;;3.70;;
79130;SDS011;72396;45.194;9.142;2024-03-23T13:09:45;7.43;;;3.13;;
79130;SDS011;72396;45.194;9.142;2024-03-23T13:12:11;5.80;;;2.80;;
79130;SDS011;72396;45.194;9.142;2024-03-23T13:14:40;8.90;;;3.40;;
79130;SDS011;72396;45.194;9.142;2024-03-23T13:17:06;8.68;;;3.40;;
79130;SDS011;72396;45.194;9.142;2024-03-23T13:19:32;9.98;;;3.25;;
79130;SDS011;72396;45.194;9.142;2024-03-23T13:21:59;11.05;;;3.13;;
79130;SDS011;72396;45.194;9.142;2024-03-23T13:24:25;9.85;;;3.05;;
79130;SDS011;72396;45.194;9.142;2024-03-23T13:26:51;6.30;;;2.83;;
79130;SDS011;72396;45.194;9.142;2024-03-23T13:29:21;7.43;;;3.10;;
79130;SDS011;72396;45.194;9.142;2024-03-23T13:31:47;6.72;;;3.35;;
79130;SDS011;72396;45.194;9.142;2024-03-23T13:34:13;6.90;;;3.22;;
79130;SDS011;72396;45.194;9.142;2024-03-23T13:36:40;8.27;;;3.15;;
79130;SDS011;72396;45.194;9.142;2024-03-23T13:39:06;6.85;;;3.05;;
79130;SDS011;72396;45.194;9.142;2024-03-23T13:41:36;7.18;;;3.20;;
79130;SDS011;72396;45.194;9.142;2024-03-23T13:44:03;6.53;;;2.58;;
79130;SDS011;72396;45.194;9.142;2024-03-23T13:46:28;7.63;;;2.72;;
79130;SDS011;72396;45.194;9.142;2024-03-23T13:48:54;6.93;;;2.83;;
79130;SDS011;72396;45.194;9.142;2024-03-23T13:51:22;7.28;;;3.15;;
79130;SDS011;72396;45.194;9.142;2024-03-23T13:53:49;6.18;;;2.78;;
79130;SDS011;72396;45.194;9.142;2024-03-23T13:56:15;4.95;;;2.60;;
79130;SDS011;72396;45.194;9.142;2024-03-23T13:58:40;5.68;;;2.80;;
79130;SDS011;72396;45.194;9.142;2024-03-23T14:01:10;6.75;;;3.03;;
79130;SDS011;72396;45.194;9.142;2024-03-23T14:03:36;5.68;;;2.50;;
79130;SDS011;72396;45.194;9.142;2024-03-23T14:06:01;10.85;;;3.20;;
79130;SDS011;72396;45.194;9.142;2024-03-23T14:08:28;5.32;;;2.38;;
79130;SDS011;72396;45.194;9.142;2024-03-23T14:10:53;5.20;;;2.70;;
79130;SDS011;72396;45.194;9.142;2024-03-23T14:13:19;7.05;;;2.58;;
79130;SDS011;72396;45.194;9.142;2024-03-23T14:15:45;5.53;;;2.63;;
79130;SDS011;72396;45.194;9.142;2024-03-23T14:18:10;6.80;;;2.47;;
79130;SDS011;72396;45.194;9.142;2024-03-23T14:20:35;4.97;;;2.35;;
79130;SDS011;72396;45.194;9.142;2024-03-23T14:23:01;8.15;;;2.70;;
79130;SDS011;72396;45.194;9.142;2024-03-23T14:25:26;4.63;;;2.38;;
79130;SDS011;72396;45.194;9.142;2024-03-23T14:27:54;6.45;;;2.70;;
79130;SDS011;72396;45.194;9.142;2024-03-23T14:30:20;6.97;;;2.78;;
79130;SDS011;72396;45.194;9.142;2024-03-23T14:32:45;7.22;;;2.50;;
79130;SDS011;72396;45.194;9.142;2024-03-23T14:35:10;8.82;;;2.72;;
79130;SDS011;72396;45.194;9.142;2024-03-23T14:37:37;5.10;;;2.63;;
79130;SDS011;72396;45.194;9.142;2024-03-23T14:40:03;6.22;;;2.40;;
79130;SDS011;72396;45.194;9.142;2024-03-23T14:42:29;4.32;;;2.53;;
79130;SDS011;72396;45.194;9.142;2024-03-23T14:44:55;5.57;;;2.70;;
79130;SDS011;72396;45.194;9.142;2024-03-23T14:47:20;6.38;;;2.70;;
79130;SDS011;72396;45.194;9.142;2024-03-23T14:49:46;4.57;;;2.60;;
79130;SDS011;72396;45.194;9.142;2024-03-23T14:52:12;4.47;;;2.58;;
79130;SDS011;72396;45.194;9.142;2024-03-23T14:54:39;6.22;;;2.95;;
79130;SDS011;72396;45.194;9.142;2024-03-23T14:57:04;8.35;;;3.63;;
79130;SDS011;72396;45.194;9.142;2024-03-23T14:59:29;7.95;;;3.45;;
79130;SDS011;72396;45.194;9.142;2024-03-23T15:01:55;6.53;;;3.20;;
79130;SDS011;72396;45.194;9.142;2024-03-23T15:04:20;7.10;;;3.30;;
79130;SDS011;72396;45.194;9.142;2024-03-23T15:06:46;5.30;;;3.08;;
79130;SDS011;72396;45.194;9.142;2024-03-23T15:09:14;6.80;;;2.67;;
79130;SDS011;72396;45.194;9.142;2024-03-23T15:11:40;4.65;;;2.75;;
79130;SDS011;72396;45.194;9.142;2024-03-23T15:14:05;6.63;;;2.40;;
79130;SDS011;72396;45.194;9.142;2024-03-23T15:16:32;6.60;;;2.80;;
79130;SDS011;72396;45.194;9.142;2024-03-23T15:18:57;5.70;;;3.08;;
79130;SDS011;72396;45.194;9.142;2024-03-23T15:21:23;5.63;;;2.40;;
79130;SDS011;72396;45.194;9.142;2024-03-23T15:23:48;6.65;;;2.83;;
79130;SDS011;72396;45.194;9.142;2024-03-23T15:26:13;8.80;;;3.05;;
79130;SDS011;72396;45.194;9.142;2024-03-23T15:28:40;5.03;;;2.45;;
79130;SDS011;72396;45.194;9.142;2024-03-23T15:31:08;5.75;;;2.50;;
79130;SDS011;72396;45.194;9.142;2024-03-23T15:33:37;5.43;;;2.45;;
79130;SDS011;72396;45.194;9.142;2024-03-23T15:36:04;4.75;;;2.47;;